Time;durP1;ratioP1;P1;durP2;ratioP2;P2;SDS_P1;SDS_P2;PMS_P1;PMS_P2;Temp;Humidity;BMP_temperature;BMP_pressure;BME280_temperature;BME280_humidity;BME280_pressure;Samples;Min_cycle;Max_cycle;Signal;HPM_P1;HPM_P2
2023/06/27 00:02:15;;;;;;;10.40;4.50;;;;;;;18.19;75.24;99152.17;109181;1254;59406;-66
2023/06/27 00:05:01;;;;;;;12.10;4.60;;;;;;;18.15;76.14;99148.90;109474;1254;59168;-65
2023/06/27 00:07:48;;;;;;;9.80;4.30;;;;;;;18.12;76.77;99142.45;109295;1254;74154;-62
2023/06/27 00:10:34;;;;;;;10.40;4.70;;;;;;;18.08;77.87;99140.75;109334;1254;66446;-63
2023/06/27 00:13:21;;;;;;;10.60;4.60;;;;;;;18.06;79.13;99142.30;109221;1254;70267;-63
2023/06/27 00:16:13;;;;;;;9.00;4.30;;;;;;;18.04;79.92;99141.48;109417;1254;57438;-63
2023/06/27 00:19:02;;;;;;;9.10;4.10;;;;;;;17.96;80.45;99137.77;109221;1254;60047;-65
2023/06/27 00:21:49;;;;;;;10.10;4.00;;;;;;;17.87;80.88;99136.67;109391;1254;73985;-66
2023/06/27 00:24:36;;;;;;;9.50;4.60;;;;;;;17.81;81.94;99132.29;109333;1254;69004;-63
2023/06/27 00:27:22;;;;;;;10.80;4.60;;;;;;;17.74;83.00;99126.34;109312;1254;72539;-63
2023/06/27 00:30:10;;;;;;;10.60;4.30;;;;;;;17.69;83.21;99125.45;109174;1254;58887;-65
2023/06/27 00:32:57;;;;;;;9.70;4.70;;;;;;;17.62;84.70;99125.57;109213;1254;60183;-64
2023/06/27 00:35:44;;;;;;;11.10;5.10;;;;;;;17.60;85.43;99126.13;109257;1254;72069;-64
2023/06/27 00:38:31;;;;;;;12.40;4.40;;;;;;;17.58;86.64;99129.29;109233;1254;66880;-66
2023/06/27 00:41:19;;;;;;;9.70;4.40;;;;;;;17.55;87.50;99127.17;109348;1254;71125;-65
2023/06/27 00:44:08;;;;;;;10.50;4.60;;;;;;;17.46;88.92;99129.71;109238;1254;58831;-62
2023/06/27 00:46:55;;;;;;;9.50;4.20;;;;;;;17.37;89.56;99127.65;109157;1254;60224;-63
2023/06/27 00:49:41;;;;;;;9.00;4.90;;;;;;;17.30;90.70;99123.75;109449;1254;72752;-63
2023/06/27 00:52:29;;;;;;;8.70;4.10;;;;;;;17.24;91.09;99123.00;109435;1254;66625;-63
2023/06/27 00:55:16;;;;;;;9.10;4.30;;;;;;;17.18;91.39;99112.95;109450;1254;71958;-63
2023/06/27 00:58:03;;;;;;;11.90;4.60;;;;;;;17.15;92.11;99109.85;109257;1254;59314;-64
2023/06/27 01:00:51;;;;;;;10.00;4.10;;;;;;;17.14;92.27;99109.55;109255;1254;59110;-63
2023/06/27 01:03:38;;;;;;;10.30;5.00;;;;;;;17.14;93.10;99103.83;109285;1254;74056;-64
2023/06/27 01:06:46;;;;;;;8.60;4.50;;;;;;;17.15;93.00;99097.86;109216;1254;68919;-65
2023/06/27 01:10:11;;;;;;;8.90;4.30;;;;;;;17.15;93.74;99096.23;109265;1254;72694;-64
2023/06/27 01:13:07;;;;;;;10.50;4.50;;;;;;;17.14;93.97;99087.25;108875;1260;58298;-66
2023/06/27 01:15:58;;;;;;;9.20;4.70;;;;;;;17.10;94.27;99090.51;108961;1260;60444;-64
2023/06/27 01:18:47;;;;;;;9.20;4.60;;;;;;;17.06;94.30;99089.46;108926;1261;72180;-63
2023/06/27 01:21:36;;;;;;;9.20;4.40;;;;;;;17.03;95.35;99089.13;108958;1260;68949;-65
2023/06/27 01:24:25;;;;;;;11.10;4.30;;;;;;;16.99;95.80;99091.36;108742;1260;73643;-65
2023/06/27 01:27:14;;;;;;;9.80;4.60;;;;;;;16.97;96.41;99087.02;108942;1260;57313;-62
2023/06/27 01:30:01;;;;;;;8.80;4.70;;;;;;;16.91;97.55;99080.80;108966;1260;60111;-64
2023/06/27 01:33:00;;;;;;;8.50;4.20;;;;;;;16.86;99.53;99076.29;108981;1260;73086;-65
2023/06/27 01:36:04;;;;;;;9.70;4.20;;;;;;;16.81;100.00;99076.09;108956;1260;67967;-64
2023/06/27 01:39:01;;;;;;;10.50;4.40;;;;;;;16.76;100.00;99081.96;108975;1260;71540;-65
2023/06/27 01:41:54;;;;;;;9.20;4.50;;;;;;;16.71;100.00;99078.24;108896;1260;60411;-63
2023/06/27 01:44:44;;;;;;;9.60;4.30;;;;;;;16.67;100.00;99074.39;108926;1260;60381;-63
2023/06/27 01:47:34;;;;;;;11.20;5.00;;;;;;;16.64;100.00;99067.23;108969;1254;73876;-64
2023/06/27 01:50:21;;;;;;;11.00;5.00;;;;;;;16.60;100.00;99067.84;109428;1254;67864;-64
2023/06/27 01:53:08;;;;;;;9.60;4.50;;;;;;;16.60;100.00;99064.09;109154;1254;72696;-64
2023/06/27 01:55:55;;;;;;;11.50;4.60;;;;;;;16.64;100.00;99061.20;109172;1254;60496;-66
2023/06/27 01:58:42;;;;;;;9.00;4.10;;;;;;;16.69;100.00;99065.00;109294;1254;59986;-66
2023/06/27 02:01:29;;;;;;;9.00;4.20;;;;;;;16.70;100.00;99060.10;109254;1254;72113;-65
2023/06/27 02:04:16;;;;;;;8.80;3.40;;;;;;;16.67;100.00;99058.77;109237;1254;68218;-65
2023/06/27 02:07:02;;;;;;;7.20;3.00;;;;;;;16.64;100.00;99060.29;109374;1254;73593;-64
2023/06/27 02:09:48;;;;;;;6.80;2.50;;;;;;;16.59;100.00;99057.94;109218;1254;59788;-64
2023/06/27 02:12:35;;;;;;;7.00;2.20;;;;;;;16.51;100.00;99057.36;109406;1254;60576;-63
2023/06/27 02:15:21;;;;;;;6.20;2.10;;;;;;;16.41;99.34;99053.45;109464;1254;72185;-62
2023/06/27 02:18:08;;;;;;;6.80;2.30;;;;;;;16.31;97.80;99056.83;109328;1254;66632;-64
2023/06/27 02:20:55;;;;;;;6.70;2.00;;;;;;;16.21;97.49;99064.27;109249;1254;72626;-62
2023/06/27 02:23:42;;;;;;;7.70;2.10;;;;;;;16.07;95.77;99063.77;109357;1254;57288;-64
2023/06/27 02:26:29;;;;;;;7.90;2.20;;;;;;;15.88;95.63;99061.21;109333;1254;60173;-64
2023/06/27 02:29:15;;;;;;;7.80;2.30;;;;;;;15.74;96.54;99059.30;109308;1254;71770;-65
2023/06/27 02:32:02;;;;;;;6.40;2.10;;;;;;;15.60;97.46;99059.94;109287;1254;67755;-61
2023/06/27 02:34:50;;;;;;;7.50;2.00;;;;;;;15.49;98.63;99054.23;109471;1254;71532;-65
2023/06/27 02:37:36;;;;;;;7.30;2.10;;;;;;;15.41;99.66;99057.70;109189;1255;60069;-63
2023/06/27 02:40:22;;;;;;;8.20;2.30;;;;;;;15.32;100.00;99056.14;109231;1254;59991;-66
2023/06/27 02:43:08;;;;;;;7.70;2.20;;;;;;;15.27;100.00;99053.45;109331;1254;73888;-63
2023/06/27 02:45:55;;;;;;;7.80;2.20;;;;;;;15.26;100.00;99058.48;109455;1254;67894;-64
2023/06/27 02:48:43;;;;;;;8.60;2.00;;;;;;;15.25;100.00;99055.70;109240;1254;72809;-66
2023/06/27 02:51:29;;;;;;;8.80;2.10;;;;;;;15.24;100.00;99046.86;109243;1254;58374;-64
2023/06/27 02:54:16;;;;;;;8.30;2.30;;;;;;;15.27;100.00;99038.91;109266;1254;59399;-63
2023/06/27 02:57:03;;;;;;;7.70;2.60;;;;;;;15.29;100.00;99027.16;109496;1254;74006;-64
2023/06/27 02:59:50;;;;;;;8.40;2.30;;;;;;;15.33;100.00;99024.11;109296;1254;67983;-64
2023/06/27 03:02:37;;;;;;;8.80;2.40;;;;;;;15.37;100.00;99018.11;109225;1254;72787;-64
2023/06/27 03:05:24;;;;;;;8.80;2.10;;;;;;;15.39;100.00;99018.25;109356;1254;59454;-64
2023/06/27 03:08:11;;;;;;;8.10;2.40;;;;;;;15.38;100.00;99024.91;109202;1254;59920;-65
2023/06/27 03:10:57;;;;;;;8.10;2.20;;;;;;;15.40;100.00;99028.80;109247;1254;72924;-64
2023/06/27 03:13:45;;;;;;;6.80;2.00;;;;;;;15.44;100.00;99022.09;109465;1254;67041;-66
2023/06/27 03:16:31;;;;;;;8.70;2.10;;;;;;;15.50;100.00;99017.44;109368;1254;72651;-65
2023/06/27 03:19:19;;;;;;;6.50;1.90;;;;;;;15.53;100.00;99010.85;109281;1254;60483;-63
2023/06/27 03:22:20;;;;;;;9.40;2.50;;;;;;;15.56;100.00;98998.17;109319;1254;60364;-64
2023/06/27 03:25:10;;;;;;;7.20;2.00;;;;;;;15.59;100.00;98986.45;109475;1254;72873;-66
2023/06/27 03:27:57;;;;;;;9.00;2.30;;;;;;;15.60;100.00;98970.76;109359;1254;65708;-64
2023/06/27 03:30:45;;;;;;;7.00;2.10;;;;;;;15.63;100.00;98978.10;109388;1254;72474;-64
2023/06/27 03:33:32;;;;;;;6.80;2.00;;;;;;;15.64;100.00;98989.79;109268;1254;60420;-64
2023/06/27 03:36:18;;;;;;;6.90;1.90;;;;;;;15.59;100.00;99001.92;109499;1254;61075;-63
2023/06/27 03:39:05;;;;;;;7.80;2.10;;;;;;;15.56;100.00;99003.35;109395;1254;72163;-63
2023/06/27 03:41:52;;;;;;;8.00;2.10;;;;;;;15.58;100.00;99007.68;109297;1254;67952;-63
2023/06/27 03:44:39;;;;;;;6.90;2.20;;;;;;;15.60;100.00;99002.06;109348;1254;73332;-65
2023/06/27 03:47:27;;;;;;;6.20;2.10;;;;;;;15.63;100.00;99002.41;109233;1254;59450;-61
2023/06/27 03:50:14;;;;;;;7.90;2.20;;;;;;;15.66;100.00;99008.90;109342;1259;59107;-65
2023/06/27 03:53:02;;;;;;;8.50;2.20;;;;;;;15.69;100.00;99012.99;109241;1254;71566;-64
2023/06/27 03:55:48;;;;;;;11.50;2.50;;;;;;;15.70;100.00;99014.46;109314;1254;66629;-63
2023/06/27 03:58:35;;;;;;;8.10;2.10;;;;;;;15.73;100.00;99018.63;109023;1254;72450;-64
2023/06/27 04:01:21;;;;;;;7.40;2.00;;;;;;;15.71;100.00;99018.14;109223;1256;59390;-64
2023/06/27 04:04:08;;;;;;;10.10;3.10;;;;;;;15.72;100.00;99015.02;109209;1254;60239;-65
2023/06/27 04:06:57;;;;;;;9.90;3.00;;;;;;;15.71;100.00;99018.36;109269;1254;72891;-66
2023/06/27 04:09:43;;;;;;;9.10;3.00;;;;;;;15.70;100.00;99025.99;109168;1254;67755;-65
2023/06/27 04:12:30;;;;;;;9.20;2.90;;;;;;;15.67;100.00;99031.83;109240;1254;70895;-66
2023/06/27 04:15:16;;;;;;;9.30;2.50;;;;;;;15.65;100.00;99036.52;109292;1254;59448;-67
2023/06/27 04:18:03;;;;;;;8.30;2.00;;;;;;;15.64;100.00;99039.97;109336;1254;60158;-63
2023/06/27 04:20:49;;;;;;;9.40;2.30;;;;;;;15.64;100.00;99038.02;109402;1254;71606;-63
2023/06/27 04:23:37;;;;;;;10.80;3.00;;;;;;;15.62;100.00;99042.09;109271;1254;66438;-64
2023/06/27 04:26:25;;;;;;;9.00;2.30;;;;;;;15.63;100.00;99048.91;109359;1254;72657;-63
2023/06/27 04:29:11;;;;;;;11.30;2.90;;;;;;;15.64;100.00;99051.11;109283;1254;57964;-66
2023/06/27 04:31:58;;;;;;;9.00;2.40;;;;;;;15.63;100.00;99054.39;109096;1256;61442;-67
2023/06/27 04:34:44;;;;;;;13.10;2.80;;;;;;;15.63;100.00;99054.77;109249;1255;72998;-65
2023/06/27 04:37:31;;;;;;;11.80;2.90;;;;;;;15.63;100.00;99057.83;109221;1255;67645;-63
2023/06/27 04:40:17;;;;;;;13.10;2.50;;;;;;;15.63;100.00;99063.52;109389;1254;71416;-65
2023/06/27 04:43:04;;;;;;;9.70;2.30;;;;;;;15.62;100.00;99054.71;109014;1258;59449;-63
2023/06/27 04:45:51;;;;;;;9.40;2.10;;;;;;;15.63;100.00;99058.32;109052;1258;61091;-65
2023/06/27 04:48:37;;;;;;;11.10;2.20;;;;;;;15.62;100.00;99056.78;109041;1258;72997;-66
2023/06/27 04:51:29;;;;;;;11.50;2.50;;;;;;;15.64;100.00;99053.22;109000;1258;66687;-67
2023/06/27 04:54:15;;;;;;;13.20;2.40;;;;;;;15.69;100.00;99058.26;109022;1258;73589;-66
2023/06/27 04:57:02;;;;;;;9.60;2.00;;;;;;;15.71;100.00;99052.80;109065;1258;58346;-67
2023/06/27 04:59:59;;;;;;;10.50;2.50;;;;;;;15.73;100.00;99056.93;109051;1258;60136;-73
2023/06/27 05:02:45;;;;;;;9.30;2.20;;;;;;;15.76;100.00;99052.38;109030;1259;71824;-75
2023/06/27 05:05:36;;;;;;;7.50;1.90;;;;;;;15.85;100.00;99047.48;109002;1258;66917;-74
2023/06/27 05:08:22;;;;;;;10.30;2.00;;;;;;;15.90;99.53;99039.77;108984;1258;71364;-75
2023/06/27 05:11:09;;;;;;;8.80;2.30;;;;;;;15.94;99.12;99037.13;108947;1258;59620;-76
2023/06/27 05:13:56;;;;;;;8.20;2.20;;;;;;;16.00;99.04;99036.25;109219;1256;58944;-72
2023/06/27 05:16:42;;;;;;;8.90;2.40;;;;;;;16.05;98.63;99026.31;109422;1254;72600;-73
2023/06/27 05:19:30;;;;;;;10.00;2.90;;;;;;;16.15;97.83;99028.41;109333;1254;67838;-70
2023/06/27 05:22:17;;;;;;;10.00;2.50;;;;;;;16.21;97.06;99029.52;109169;1254;70651;-71
2023/06/27 05:25:04;;;;;;;11.60;2.30;;;;;;;16.31;96.63;99026.66;109221;1254;59416;-70
2023/06/27 05:27:50;;;;;;;10.20;2.20;;;;;;;16.38;96.31;99025.59;109429;1254;59009;-72
2023/06/27 05:30:37;;;;;;;9.50;2.30;;;;;;;16.37;95.53;99021.33;109097;1256;73153;-71
2023/06/27 05:33:23;;;;;;;8.20;2.00;;;;;;;16.38;95.47;99009.45;109133;1254;67826;-72
2023/06/27 05:36:09;;;;;;;10.80;2.40;;;;;;;16.42;94.82;99008.19;109295;1254;71277;-71
2023/06/27 05:38:56;;;;;;;10.10;2.10;;;;;;;16.47;94.21;99005.33;109117;1256;58632;-72
2023/06/27 05:41:42;;;;;;;12.10;2.60;;;;;;;16.47;93.76;99002.94;109209;1254;59143;-73
2023/06/27 05:44:29;;;;;;;9.60;2.10;;;;;;;16.47;93.60;99001.53;109250;1254;71564;-74
2023/06/27 05:47:16;;;;;;;10.30;2.20;;;;;;;16.45;93.15;99001.50;109281;1254;66433;-72
2023/06/27 05:50:03;;;;;;;8.50;2.20;;;;;;;16.43;92.97;99002.35;109217;1254;72772;-71
2023/06/27 05:52:50;;;;;;;13.80;6.00;;;;;;;16.41;92.82;99005.72;109264;1255;58091;-73
2023/06/27 05:55:36;;;;;;;11.10;3.20;;;;;;;16.38;92.73;99009.12;109307;1254;60751;-74
2023/06/27 05:58:23;;;;;;;10.60;3.20;;;;;;;16.37;92.62;99011.13;109158;1254;73083;-71
2023/06/27 06:01:09;;;;;;;8.50;2.40;;;;;;;16.32;92.41;99018.33;109172;1255;67872;-72
2023/06/27 06:03:57;;;;;;;10.90;2.30;;;;;;;16.32;92.69;99015.54;109233;1254;71599;-72
2023/06/27 06:06:43;;;;;;;9.00;2.30;;;;;;;16.32;92.37;99012.26;109194;1254;58198;-74
2023/06/27 06:09:31;;;;;;;9.90;2.40;;;;;;;16.33;92.41;99013.76;109168;1255;60105;-73
2023/06/27 06:12:17;;;;;;;10.20;2.40;;;;;;;16.34;92.90;99012.23;109285;1254;71961;-72
2023/06/27 06:15:05;;;;;;;10.20;2.90;;;;;;;16.35;92.97;99006.55;109261;1255;67624;-70
2023/06/27 06:17:51;;;;;;;9.50;2.90;;;;;;;16.32;92.55;99015.27;109182;1254;71289;-71
2023/06/27 06:20:37;;;;;;;8.70;2.30;;;;;;;16.31;92.82;99015.38;109322;1255;59349;-74
2023/06/27 06:23:24;;;;;;;10.80;2.70;;;;;;;16.32;92.77;99022.61;109282;1255;61056;-70
2023/06/27 06:26:12;;;;;;;10.50;2.70;;;;;;;16.30;92.16;99033.20;109304;1254;73106;-71
2023/06/27 06:29:00;;;;;;;9.30;2.10;;;;;;;16.30;92.20;99039.42;109191;1254;68895;-71
2023/06/27 06:31:46;;;;;;;8.30;2.10;;;;;;;16.33;92.38;99046.21;109148;1254;72553;-71
2023/06/27 06:34:33;;;;;;;10.10;2.40;;;;;;;16.37;92.37;99045.73;109446;1253;57966;-71
2023/06/27 06:37:19;;;;;;;7.90;1.90;;;;;;;16.38;91.98;99041.23;109303;1257;60050;-74
2023/06/27 06:40:06;;;;;;;7.30;2.00;;;;;;;16.41;91.47;99047.42;109217;1254;71855;-74
2023/06/27 06:42:53;;;;;;;10.10;2.30;;;;;;;16.43;91.38;99047.33;109208;1254;66425;-74
2023/06/27 06:45:40;;;;;;;10.60;2.50;;;;;;;16.44;91.17;99048.46;109158;1254;72732;-70
2023/06/27 06:48:27;;;;;;;7.90;2.30;;;;;;;16.46;91.25;99045.05;108963;1259;57789;-70
2023/06/27 06:51:13;;;;;;;8.50;2.40;;;;;;;16.45;91.06;99043.69;108935;1259;60655;-71
2023/06/27 06:54:00;;;;;;;10.80;2.40;;;;;;;16.42;91.14;99044.16;109004;1258;72916;-72
2023/06/27 06:56:49;;;;;;;12.50;2.50;;;;;;;16.49;90.69;99048.40;108937;1258;66434;-73
2023/06/27 06:59:36;;;;;;;10.20;2.30;;;;;;;16.61;90.16;99052.19;108969;1258;72790;-73
2023/06/27 07:02:22;;;;;;;9.70;2.00;;;;;;;16.80;89.74;99052.46;108945;1258;59637;-71
2023/06/27 07:05:09;;;;;;;8.20;2.00;;;;;;;17.00;88.99;99057.29;109048;1258;59453;-70
2023/06/27 07:07:56;;;;;;;11.00;2.80;;;;;;;17.19;87.88;99059.61;108909;1259;71556;-71
2023/06/27 07:10:43;;;;;;;10.50;2.50;;;;;;;17.32;86.18;99058.76;108991;1258;68882;-71
2023/06/27 07:13:29;;;;;;;10.60;2.90;;;;;;;17.43;85.72;99058.71;108986;1259;73145;-69
2023/06/27 07:16:15;;;;;;;9.00;2.20;;;;;;;17.55;84.83;99056.66;108876;1258;59315;-70
2023/06/27 07:19:04;;;;;;;8.00;1.90;;;;;;;17.73;84.05;99058.73;109172;1254;60275;-70
2023/06/27 07:21:50;;;;;;;10.70;2.00;;;;;;;17.90;82.57;99055.61;109330;1254;72881;-70
2023/06/27 07:24:37;;;;;;;10.40;2.30;;;;;;;18.21;80.54;99050.20;109233;1255;67882;-71
2023/06/27 07:27:23;;;;;;;8.70;2.10;;;;;;;18.90;79.79;99048.78;109444;1254;71432;-72
2023/06/27 07:30:11;;;;;;;7.70;2.00;;;;;;;19.66;74.87;99041.66;108917;1259;58548;-71
2023/06/27 07:32:59;;;;;;;8.60;1.80;;;;;;;21.26;69.00;99042.39;108999;1259;59131;-72
2023/06/27 07:35:46;;;;;;;9.60;1.70;;;;;;;22.52;61.99;99049.13;109004;1259;73882;-72
2023/06/27 07:38:32;;;;;;;6.50;1.70;;;;;;;22.69;61.95;99049.89;109040;1259;68848;-71
2023/06/27 07:41:19;;;;;;;7.80;1.70;;;;;;;23.68;59.60;99041.23;108973;1259;71499;-73
2023/06/27 07:44:06;;;;;;;6.30;1.50;;;;;;;23.94;56.24;99039.80;108889;1259;57283;-72
2023/06/27 07:46:52;;;;;;;9.60;2.20;;;;;;;23.93;54.28;99037.17;108986;1259;59087;-75
2023/06/27 07:49:39;;;;;;;7.00;1.40;;;;;;;23.46;55.81;99032.11;108959;1259;73065;-73
2023/06/27 07:52:26;;;;;;;7.20;1.50;;;;;;;24.40;54.44;99024.02;108979;1259;67774;-70
2023/06/27 07:55:13;;;;;;;9.70;3.70;;;;;;;25.42;51.83;99022.65;108970;1259;71344;-71
2023/06/27 07:58:01;;;;;;;7.30;1.50;;;;;;;26.75;46.79;99016.23;108998;1259;57492;-72
2023/06/27 08:00:47;;;;;;;7.50;2.30;;;;;;;27.76;43.12;99019.95;108908;1258;60082;-71
2023/06/27 08:03:36;;;;;;;7.70;1.30;;;;;;;28.44;40.96;99017.13;108879;1259;71523;-71
2023/06/27 08:06:23;;;;;;;8.20;1.50;;;;;;;27.97;40.85;99023.66;108915;1259;68542;-72
2023/06/27 08:09:09;;;;;;;7.20;1.30;;;;;;;27.94;41.63;99022.55;108901;1259;72622;-73
2023/06/27 08:11:57;;;;;;;8.60;1.40;;;;;;;27.19;42.23;99023.92;108925;1259;57427;-71
2023/06/27 08:14:47;;;;;;;8.30;1.40;;;;;;;26.22;44.50;99019.61;108956;1259;60152;-74
2023/06/27 08:17:34;;;;;;;7.70;1.20;;;;;;;25.40;45.47;99023.38;108867;1259;73045;-72
2023/06/27 08:20:20;;;;;;;7.10;1.40;;;;;;;24.45;47.08;99026.53;109072;1259;66643;-74
2023/06/27 08:23:08;;;;;;;6.90;1.20;;;;;;;24.08;48.25;99035.23;108925;1260;73705;-73
2023/06/27 08:25:56;;;;;;;7.50;1.60;;;;;;;24.42;48.61;99034.77;108999;1259;58233;-73
2023/06/27 08:28:43;;;;;;;8.90;1.40;;;;;;;24.16;49.90;99039.92;108787;1257;59260;-72
2023/06/27 08:31:30;;;;;;;7.30;1.50;;;;;;;23.78;50.86;99044.06;108967;1256;72777;-72
2023/06/27 08:34:18;;;;;;;6.90;1.40;;;;;;;23.09;51.75;99048.41;109157;1256;68007;-71
2023/06/27 08:37:05;;;;;;;7.90;1.10;;;;;;;22.64;53.74;99053.86;109231;1255;72806;-71
2023/06/27 08:39:53;;;;;;;8.70;1.20;;;;;;;23.23;53.20;99056.15;109166;1254;57395;-73
2023/06/27 08:42:39;;;;;;;6.10;1.30;;;;;;;24.47;51.03;99047.64;109306;1254;58858;-76
2023/06/27 08:45:26;;;;;;;8.80;1.90;;;;;;;25.44;47.11;99056.80;109219;1255;72922;-73
2023/06/27 08:48:14;;;;;;;7.10;1.80;;;;;;;25.48;45.35;99058.25;109309;1254;66677;-73
2023/06/27 08:51:02;;;;;;;5.50;1.10;;;;;;;24.93;45.15;99066.27;109335;1256;72599;-72
2023/06/27 08:53:56;;;;;;;6.40;1.10;;;;;;;24.47;46.31;99062.47;109143;1255;57820;-72
2023/06/27 08:56:43;;;;;;;6.10;1.20;;;;;;;23.96;47.88;99059.61;109229;1255;60251;-71
2023/06/27 08:59:36;;;;;;;7.10;1.40;;;;;;;23.87;48.30;99061.84;109284;1254;71800;-72
2023/06/27 09:02:25;;;;;;;7.20;1.40;;;;;;;23.87;49.45;99065.25;109166;1255;66494;-73
2023/06/27 09:05:14;;;;;;;8.80;1.70;;;;;;;23.49;50.75;99062.27;109166;1255;71127;-71
2023/06/27 09:08:00;;;;;;;9.50;1.30;;;;;;;23.19;50.75;99060.98;109173;1254;57283;-70
2023/06/27 09:10:47;;;;;;;6.80;1.40;;;;;;;22.76;51.19;99072.45;109385;1254;59806;-71
2023/06/27 09:13:34;;;;;;;8.00;1.30;;;;;;;22.44;52.05;99076.96;109186;1254;73333;-72
2023/06/27 09:16:21;;;;;;;6.20;1.40;;;;;;;22.55;53.00;99079.17;109321;1255;67583;-73
2023/06/27 09:19:09;;;;;;;7.40;1.30;;;;;;;23.93;50.70;99075.50;109189;1254;72830;-74
2023/06/27 09:21:57;;;;;;;6.90;1.20;;;;;;;23.92;50.87;99088.23;109236;1254;58411;-73
2023/06/27 09:24:43;;;;;;;9.20;1.50;;;;;;;23.41;53.83;99099.32;109303;1254;60217;-72
2023/06/27 09:27:31;;;;;;;6.70;1.20;;;;;;;22.67;55.71;99108.18;109193;1254;71552;-70
2023/06/27 09:30:18;;;;;;;5.90;1.40;;;;;;;22.11;58.11;99100.43;109454;1254;67876;-71
2023/06/27 09:33:04;;;;;;;9.30;1.60;;;;;;;21.49;60.30;99106.60;109342;1254;71391;-73
2023/06/27 09:35:51;;;;;;;9.60;1.70;;;;;;;21.21;62.70;99109.17;109428;1254;57688;-73
2023/06/27 09:38:53;;;;;;;8.30;1.60;;;;;;;21.37;62.23;99110.88;109304;1255;60141;-71
2023/06/27 09:41:44;;;;;;;8.00;1.60;;;;;;;21.63;61.64;99105.48;109197;1254;73168;-70
2023/06/27 09:44:31;;;;;;;9.40;1.60;;;;;;;22.16;61.31;99110.02;109431;1254;67777;-72
2023/06/27 09:47:24;;;;;;;6.50;1.20;;;;;;;22.28;61.64;99117.55;109181;1254;71391;-69
2023/06/27 09:50:11;;;;;;;6.50;1.80;;;;;;;22.56;61.37;99121.79;109352;1254;57467;-71
2023/06/27 09:53:01;;;;;;;5.80;1.20;;;;;;;22.10;59.92;99125.81;109172;1254;59151;-70
2023/06/27 09:55:47;;;;;;;7.30;1.60;;;;;;;21.49;60.36;99127.30;109306;1254;73026;-72
2023/06/27 09:58:35;;;;;;;7.50;1.70;;;;;;;20.88;62.72;99127.16;109133;1254;66373;-71
2023/06/27 10:01:25;;;;;;;7.00;1.50;;;;;;;20.41;65.16;99123.01;109318;1254;72863;-72
2023/06/27 10:04:11;;;;;;;7.70;1.80;;;;;;;20.04;67.07;99127.21;109166;1254;57873;-73
2023/06/27 10:07:01;;;;;;;6.70;2.00;;;;;;;19.75;68.64;99131.10;109319;1254;61165;-74
2023/06/27 10:09:49;;;;;;;10.60;1.90;;;;;;;19.64;70.03;99132.58;109240;1254;71767;-72
2023/06/27 10:12:37;;;;;;;9.70;2.00;;;;;;;19.43;70.05;99134.96;109316;1254;66744;-72
2023/06/27 10:15:23;;;;;;;9.90;2.00;;;;;;;19.32;71.23;99142.09;109197;1259;71450;-74
2023/06/27 10:18:11;;;;;;;9.50;1.90;;;;;;;19.20;71.20;99147.91;109231;1254;57379;-72
2023/06/27 10:20:57;;;;;;;8.80;1.90;;;;;;;18.80;72.56;99149.05;109145;1254;60371;-70
2023/06/27 10:23:52;;;;;;;7.30;1.50;;;;;;;18.43;74.62;99155.40;109348;1254;72936;-71
2023/06/27 10:26:39;;;;;;;7.70;1.60;;;;;;;18.01;74.79;99168.38;109199;1254;66643;-71
2023/06/27 10:29:31;;;;;;;7.40;2.00;;;;;;;17.69;76.83;99166.31;109236;1254;72713;-69
2023/06/27 10:32:19;;;;;;;8.50;2.10;;;;;;;17.38;78.63;99166.71;109324;1254;57210;-71
2023/06/27 10:35:23;;;;;;;6.60;1.70;;;;;;;17.14;80.01;99171.53;109229;1254;60341;-72
2023/06/27 10:38:17;;;;;;;6.00;1.70;;;;;;;16.94;80.45;99172.19;109327;1254;72076;-68
2023/06/27 10:41:05;;;;;;;7.10;1.90;;;;;;;16.77;81.73;99177.99;109223;1254;67873;-71
2023/06/27 10:43:53;;;;;;;8.10;1.70;;;;;;;16.69;82.58;99187.86;109448;1254;72447;-71
2023/06/27 10:46:39;;;;;;;7.10;1.80;;;;;;;16.55;83.08;99190.52;109217;1254;59424;-72
2023/06/27 10:49:35;;;;;;;7.00;1.60;;;;;;;16.57;84.26;99192.00;109215;1254;58825;-70
2023/06/27 10:52:25;;;;;;;6.80;1.70;;;;;;;16.60;83.95;99195.43;109228;1254;73029;-72
2023/06/27 10:55:18;;;;;;;7.20;1.90;;;;;;;16.51;83.77;99192.60;109249;1254;67768;-71
2023/06/27 10:58:13;;;;;;;7.80;1.90;;;;;;;16.48;84.06;99201.95;109452;1254;71460;-71
2023/06/27 11:01:01;;;;;;;7.00;1.80;;;;;;;16.40;84.16;99204.34;109294;1254;59644;-72
2023/06/27 11:03:52;;;;;;;7.00;1.80;;;;;;;16.33;84.06;99210.31;109171;1254;58762;-72
2023/06/27 11:06:40;;;;;;;5.50;1.70;;;;;;;16.17;83.92;99203.73;109157;1254;73045;-63
2023/06/27 11:09:30;;;;;;;6.10;1.50;;;;;;;16.09;83.92;99208.02;109179;1258;68771;-65
2023/06/27 11:12:17;;;;;;;5.00;1.30;;;;;;;16.02;84.25;99215.98;109384;1254;72712;-64
2023/06/27 11:15:05;;;;;;;5.00;1.30;;;;;;;15.92;83.77;99216.21;109271;1254;57815;-65
2023/06/27 11:17:52;;;;;;;7.20;1.60;;;;;;;15.81;83.94;99217.48;109372;1254;59188;-64
2023/06/27 11:20:40;;;;;;;6.10;1.80;;;;;;;15.65;84.05;99216.67;109170;1254;71040;-65
2023/06/27 11:23:29;;;;;;;6.70;1.80;;;;;;;15.56;84.97;99215.56;109403;1254;66640;-64
2023/06/27 11:26:15;;;;;;;8.00;1.60;;;;;;;15.52;85.54;99214.10;109221;1254;72721;-64
2023/06/27 11:29:03;;;;;;;7.00;1.70;;;;;;;15.51;86.22;99218.96;109283;1254;59424;-65
2023/06/27 11:31:50;;;;;;;7.10;1.80;;;;;;;15.55;86.99;99227.31;109249;1254;58789;-65
2023/06/27 11:34:42;;;;;;;9.20;2.00;;;;;;;15.56;87.27;99226.89;109384;1254;73883;-63
2023/06/27 11:37:28;;;;;;;8.80;2.10;;;;;;;15.59;87.98;99233.16;109337;1254;67972;-63
2023/06/27 11:40:16;;;;;;;7.70;2.10;;;;;;;15.62;87.56;99235.86;109345;1254;72748;-68
2023/06/27 11:43:07;;;;;;;7.50;1.90;;;;;;;15.76;87.77;99231.61;109251;1255;57336;-68
2023/06/27 11:45:57;;;;;;;9.20;2.20;;;;;;;15.98;86.60;99235.19;109340;1254;58297;-64
2023/06/27 11:48:44;;;;;;;8.00;2.40;;;;;;;16.32;86.21;99232.23;109347;1254;74049;-65
2023/06/27 11:51:40;;;;;;;7.10;1.90;;;;;;;16.66;84.56;99230.42;109421;1254;66655;-63
2023/06/27 11:54:26;;;;;;;9.30;2.30;;;;;;;16.85;83.74;99228.11;109225;1254;72702;-64
2023/06/27 11:57:13;;;;;;;7.00;1.90;;;;;;;16.97;82.66;99231.02;109424;1254;58078;-65
2023/06/27 11:59:59;;;;;;;8.40;2.00;;;;;;;17.17;82.32;99238.58;109209;1254;59449;-65
2023/06/27 12:02:48;;;;;;;8.90;2.50;;;;;;;17.30;80.81;99237.05;109426;1254;72491;-65
2023/06/27 12:05:34;;;;;;;7.90;2.00;;;;;;;17.50;80.35;99237.72;109432;1254;69050;-68
2023/06/27 12:08:22;;;;;;;7.70;2.10;;;;;;;17.77;79.40;99239.30;109369;1254;71428;-64
2023/06/27 12:11:09;;;;;;;7.60;1.90;;;;;;;18.08;78.55;99242.68;109220;1254;57815;-64
2023/06/27 12:13:55;;;;;;;7.60;1.80;;;;;;;18.49;77.01;99240.23;109227;1254;60311;-62
2023/06/27 12:16:43;;;;;;;8.40;2.20;;;;;;;18.59;75.40;99240.23;109430;1254;72985;-62
2023/06/27 12:19:29;;;;;;;9.70;2.60;;;;;;;18.27;76.00;99232.46;109428;1254;67880;-64
2023/06/27 12:22:15;;;;;;;7.60;1.90;;;;;;;17.94;77.44;99236.02;109141;1254;72779;-63
2023/06/27 12:25:02;;;;;;;9.30;2.10;;;;;;;17.56;79.26;99237.52;109229;1254;57471;-69
2023/06/27 12:27:48;;;;;;;9.80;2.60;;;;;;;17.26;80.57;99246.27;109266;1254;59080;-65
2023/06/27 12:30:35;;;;;;;9.50;2.60;;;;;;;17.06;81.63;99248.45;109407;1254;73152;-65
2023/06/27 12:33:21;;;;;;;8.90;2.20;;;;;;;16.84;82.46;99247.60;109261;1254;67810;-66
2023/06/27 12:36:08;;;;;;;8.50;2.60;;;;;;;16.63;82.90;99249.41;109376;1254;71279;-64
2023/06/27 12:38:55;;;;;;;7.50;1.80;;;;;;;16.44;84.45;99256.36;109199;1254;57844;-63
2023/06/27 12:41:41;;;;;;;10.10;2.40;;;;;;;16.21;85.99;99252.83;109191;1254;60494;-63
2023/06/27 12:44:28;;;;;;;8.90;2.60;;;;;;;16.07;86.91;99257.36;109392;1254;72925;-64
2023/06/27 12:47:14;;;;;;;9.60;2.40;;;;;;;15.94;88.05;99264.52;109208;1254;65957;-65
2023/06/27 12:50:00;;;;;;;9.40;2.40;;;;;;;15.74;88.96;99269.53;108943;1260;72589;-61
2023/06/27 12:52:49;;;;;;;10.70;2.30;;;;;;;15.60;88.58;99261.59;108894;1260;59457;-64
2023/06/27 12:55:36;;;;;;;8.60;2.40;;;;;;;15.55;89.64;99257.00;108948;1260;60370;-62
2023/06/27 12:58:22;;;;;;;11.90;2.70;;;;;;;15.48;89.79;99263.41;108957;1260;72908;-63